Etusivu
METAR-TAF:

METAR-TAF

Lentoasemat :

Florø, Norja

Leveyspiiri: 61-35N, Pituuspiiri: 005-02E, korkeus merenpinnasta: 0 m

Tämänhetkinen sää

Tämä raportti tehtiin 11 minuuttia sitten, kello 10.20 UTC
Tuuli 7 kn etelästä/kaakosta, vaihdellen kaakon ja etelän/lounaan välillä
Lämpötila 16°C
Kosteus 72%
Ilmanpaine 1027 hPa
Näkyvyys 10 km tai enemmän

METAR: ENFL 241020Z AUTO 16007KT 140V200 9999NDV OVC062/// 16/11 Q1027

Aika: 12:31 (10:31 UTC)


TAF: puuttuu

Säähavainnot ja -ennusteet yli 4000 lentoasemalta (METAR- ja TAF-raportit).

Käytössä olevat sääasemat on merkitty karttaan keltaisilla ja punaisilla pisteillä.

Aseta hiiri pisteen päälle nähdäksesi sääaseman nimen.

Klikkaa sitten nähdäksesi säähavainnot ja -ennusteet.

Kartan vaihtaminen: klikkaa mustalla rastilla varustettuja vihreitä pisteitä, niin voit zoomata sisään; viivalla varustettua vihreää pistettä, niin voit zoomata ulos tai vihreitä nuolia, niin pääset viereisille kartoille.


METAR-TAF: